Tiempo atmosférico en la estación meteorológica de Muñotello, Ávila (1178 m.)



Fecha
DESCASC
Temp. máxima en grados centígrados (hora)
DESCASC
Temp. mínima en grados centígrados (hora)
DESCASC
Temp. media en grados centígrados
DESCASC
Racha de viento máxima en m/sg (hora)
DESCASC
Velocidad máxima media en intervalos de 10 minutos(hora)
DESCASC
Precipitaciones diarias en mm
DESCASC
Precipitaciones de 00:00 a 06:00 en mm
DESCASC
Precipitaciones de 06:00 a 12:00 en mm
DESCASC
Precipitaciones de 12:00 a 18:00 en mm
DESCASC
Precipitaciones de 18:00 a 24:00 en mm
DESCASC
20-09-2020 19.8 (16:50) 11.8 (08:00) 15.8 11.94 (14:20) 8.06 (14:40) 0 0 0 0 0
19-09-2020 16.5 (17:30) 11.3 (00:00) 13.9 11.94 (10:00) 6.94 (10:20) 1.8 1.4 0 0.4 0
18-09-2020 18.6 (13:50) 11.3 (23:59) 15 14.17 (21:10) 9.17 (21:20) 30.2 11.2 1.8 10.6 6.6
17-09-2020 23.2 (14:40) 14.1 (00:00) 18.7 19.44 (16:30) 13.33 (16:30) 13.4 0.4 0 0 13
16-09-2020 26.2 (16:00) 11.2 (00:00) 18.7 11.67 (22:00) 5.56 (17:30) 0.2 0 0 0 0.2
15-09-2020 24.8 (17:20) 12.5 (00:00) 18.6 11.67 (14:30) 6.67 (17:10) 0.2 0.2 0 0 0
14-09-2020 26.4 (15:30) 14.3 (00:00) 20.3 14.17 (16:50) 8.61 (14:00) 6.6 0 0 0 6.6
13-09-2020 29.1 (13:30) 14 (00:00) 21.6 11.67 (17:20) 8.33 (19:10) 0 0 0 0 0
12-09-2020 29.2 (16:20) 13.5 (00:00) 21.4 7.78 (15:20) 4.44 (16:20) 0 0 0 0 0
11-09-2020 28.5 (15:10) 12.5 (00:00) 20.5 7.5 (17:30) 4.44 (17:30) 0 0 0 0 0
10-09-2020 26.2 (16:50) 13.2 (00:00) 19.7 8.06 (13:30) 3.89 (19:50) 0 0 0 0 0
09-09-2020 26.4 (17:10) 10.1 (00:00) 18.3 7.5 (19:10) 5.28 (19:10) 0 0 0 0 0
08-09-2020 24.3 (17:40) 5.5 (00:00) 14.9 10 (14:40) 5 (18:40) 0 0 0 0 0
07-09-2020 22.1 (17:20) 7.7 (07:30) 14.9 7.5 (15:20) 3.61 (15:50) 0 0 0 0 0
06-09-2020 29 (13:50) 14.3 (00:00) 21.7 9.72 (15:30) 6.11 (17:50) 0 0 0 0 0
05-09-2020 30.1 (15:40) 13.8 (00:00) 22 8.33 (15:10) 4.72 (14:50) 0 0 0 0 0
04-09-2020 30.3 (15:50) 13.1 (00:00) 21.7 10 (18:00) 6.11 (20:20) 0 0 0 0 0
03-09-2020 29.7 (17:00) 11.6 (00:00) 20.7 8.06 (14:10) 4.44 (20:00) 0 0 0 0 0
02-09-2020 25.8 (16:40) 9.2 (00:00) 17.5 10.83 (14:40) 4.17 (16:00) 0 0 0 0 0
01-09-2020 25.1 (17:30) 11.5 (00:00) 18.3 8.33 (16:00) 5.28 (16:00) 0 0 0 0 0
31-08-2020 23.1 (17:20) 5.5 (00:00) 14.3 8.06 (16:20) 5.28 (16:50) 0 0 0 0 0
30-08-2020 18 (16:20) 4.4 (00:00) 11.2 8.61 (15:20) 4.17 (01:00) 0 0 0 0 0
29-08-2020 18.2 (16:30) 9 (00:00) 13.6 10.83 (19:30) 7.22 (19:30) 0 0 0 0 0
28-08-2020 25.7 (16:00) 14.2 (00:00) 20 14.44 (15:10) 9.72 (11:40) 0 0 0 0 0
27-08-2020 32.7 (16:10) 16.8 (00:00) 24.8 10.56 (16:20) 6.11 (23:40) 0 0 0 0 0
26-08-2020 32.9 (17:00) 15.9 (00:00) 24.4 8.61 (19:00) 5.83 (18:20) 0 0 0 0 0
25-08-2020 32.7 (17:40) 16.1 (00:00) 24.4 10.83 (13:50) 7.5 (13:50) 0 0 0 0 0
24-08-2020 31.3 (15:40) 13.4 (00:00) 22.3 9.44 (16:20) 5.28 (16:00) 0 0 0 0 0

Gráficas

Temp. máximas Temp. mínimas Temp. medias Precipitaciones Rachas de viento máximas Velocidades máximas media en intervalos de 10 minutos

Datos horarios

Fecha y hora oficial Temperatura (ºC) Velocidad del viento (km/h) Dirección del viento Racha (km/h) Dirección de racha Precipitación (mm) Presión (hPa) Tendencia (hPa) Humedad (%)
2020-09-22 23:00:00 14.3 6 Sudoeste 10 Sudoeste 0 -- -- 73
2020-09-22 22:00:00 14.7 6 Sudoeste 16 Oeste 0 -- -- 71
2020-09-22 21:00:00 15.8 8 Oeste 18 Sudoeste 0 -- -- 66
2020-09-22 20:00:00 17.5 10 Oeste 25 Oeste 0 -- -- 59
2020-09-22 19:00:00 18.5 12 Oeste 28 Oeste 0 -- -- 54
2020-09-22 18:00:00 19.3 15 Oeste 30 Oeste 0 -- -- 51
2020-09-22 17:00:00 20.4 20 Oeste 32 Oeste 0 -- -- 48
2020-09-22 16:00:00 20.1 16 Oeste 32 Oeste 0 -- -- 48
2020-09-22 15:00:00 20.3 16 Oeste 32 Sudoeste 0 -- -- 46
2020-09-22 14:00:00 19.5 19 Oeste 31 Oeste 0 -- -- 47
2020-09-22 13:00:00 18.8 16 Oeste 30 Oeste 0 -- -- 49
2020-09-22 12:00:00 18.1 16 Oeste 30 Oeste 0 -- -- 45
2020-09-22 11:00:00 14.9 3 Nordeste 7 Nordeste 0 -- -- 62
2020-09-22 10:00:00 12.6 0 Calma 5 Noroeste 0 -- -- 70
2020-09-22 09:00:00 8.9 3 Sur 6 Oeste 0 -- -- 78
2020-09-22 08:00:00 8.5 5 Sur 9 Sur 0 -- -- 79
2020-09-22 07:00:00 8.5 3 Sur 7 Sur 0 -- -- 79
2020-09-22 06:00:00 8.2 3 Oeste 6 Oeste 0 -- -- 81
2020-09-22 05:00:00 9.5 3 Oeste 10 Sudoeste 0 -- -- 76
2020-09-22 04:00:00 10.7 8 Sur 12 Sur 0 -- -- 72
2020-09-22 03:00:00 10.6 6 Sudoeste 9 Sudoeste 0 -- -- 72
2020-09-22 02:00:00 11.3 9 Sur 12 Sur 0 -- -- 69
2020-09-22 01:00:00 11.9 0 Calma 13 Sur 0 -- -- 67
2020-09-22 00:00:00 12.5 6 Sudoeste 10 Sudoeste 0 -- -- 64
2020-09-21 23:00:00 13.8 7 Sudoeste 18 Oeste 0 -- -- 60
2020-09-21 22:00:00 14.8 13 Sudoeste 24 Oeste 0 -- -- 56
2020-09-21 21:00:00 15.6 8 Oeste 14 Oeste 0 -- -- 57
2020-09-21 20:00:00 16.8 5 Noroeste 19 Sudoeste 0 -- -- 53
2020-09-21 19:00:00 18.9 16 Oeste 26 Sudoeste 0 -- -- 42
2020-09-21 18:00:00 19.9 16 Oeste 30 Oeste 0 -- -- 38
2020-09-21 17:00:00 20.2 15 Noroeste 29 Noroeste 0 -- -- 41
2020-09-21 16:00:00 21 9 Oeste 22 Oeste 0 -- -- 31
2020-09-21 15:00:00 19.9 9 Oeste 19 Oeste 0 -- -- 37
2020-09-21 14:00:00 19.8 7 Este 16 Norte 0 -- -- 44
2020-09-21 13:00:00 18.1 6 Sudoeste 13 Oeste 0 -- -- 51
2020-09-21 12:00:00 16.1 4 Nordeste 12 Nordeste 0 -- -- 64
2020-09-21 11:00:00 14.3 3 Este 6 Este 0 -- -- 73
2020-09-21 10:00:00 11.7 4 Sudeste 5 Sudeste 0 -- -- 77
2020-09-21 09:00:00 10.1 0 Calma 12 Sudoeste 0 -- -- 82
2020-09-21 08:00:00 9.1 8 Sur 12 Sudoeste 0 -- -- 80
2020-09-21 07:00:00 8.4 0 Calma 8 Sudoeste 0 -- -- 86
2020-09-21 06:00:00 8.5 2 Oeste 10 Sur 0 -- -- 87
2020-09-21 05:00:00 9.9 6 Sur 8 Sur 0 -- -- 83
2020-09-21 04:00:00 10.3 4 Sur 12 Oeste 0 -- -- 83
2020-09-21 03:00:00 11.1 6 Oeste 12 Oeste 0 -- -- 83
2020-09-21 02:00:00 12.6 9 Oeste 17 Oeste 0 -- -- 79
2020-09-21 01:00:00 12.8 4 Oeste 9 Oeste 0 -- -- 82
2020-09-21 00:00:00 13.6 2 Noroeste 12 Oeste 0 -- -- 79
2020-09-20 23:00:00 13.4 0 Calma 15 Oeste 0 -- -- 82
2020-09-20 22:00:00 14.6 11 Oeste 22 Sudoeste 0 -- -- 78
2020-09-20 21:00:00 15 12 Oeste 22 Sudoeste 0 -- -- 73
2020-09-20 20:00:00 16 17 Oeste 37 Oeste 0 -- -- 66
2020-09-20 19:00:00 17.5 24 Oeste 42 Oeste 0 -- -- 63
2020-09-20 18:00:00 17.9 24 Oeste 36 Oeste 0 -- -- 64
2020-09-20 17:00:00 18.6 27 Oeste 37 Oeste 0 -- -- 67
2020-09-20 16:00:00 18.6 21 Oeste 41 Oeste 0 -- -- 63
2020-09-20 15:00:00 18.6 28 Oeste 43 Oeste 0 -- -- 62
2020-09-20 14:00:00 19 27 Oeste 41 Oeste 0 -- -- 59
2020-09-20 13:00:00 18.3 21 Oeste 36 Oeste 0 -- -- 64
2020-09-20 12:00:00 18.1 20 Oeste 33 Oeste 0 -- -- 66
2020-09-20 11:00:00 16 5 Sudeste 9 Este 0 -- -- 76
2020-09-20 10:00:00 14.1 2 Noroeste 6 Noroeste 0 -- -- 81
2020-09-20 09:00:00 12.6 0 Calma 12 Sur 0 -- -- 88
2020-09-20 08:00:00 11.8 4 Norte 13 Nordeste 0 -- -- 90
2020-09-20 07:00:00 12.3 5 Este 11 Este 0 -- -- 87
2020-09-20 06:00:00 12.8 4 Norte 14 Este 0 -- -- 86
2020-09-20 05:00:00 12.9 2 Norte 10 Nordeste 0 -- -- 87
2020-09-20 04:00:00 13 4 Este 14 Este 0 -- -- 85
2020-09-20 03:00:00 13.4 5 Este 27 Noroeste 0 -- -- 82
2020-09-20 02:00:00 13.1 13 Noroeste 24 Noroeste 0 -- -- 85
2020-09-20 01:00:00 13 6 Oeste 20 Sudoeste 0 -- -- 88
2020-09-20 00:00:00 13.6 11 Oeste 32 Oeste 0 -- -- 83
2020-09-19 23:00:00 14.1 12 Oeste 34 Sudoeste 0 -- -- 79
2020-09-19 22:00:00 13.2 14 Noroeste 20 Noroeste 0 -- -- 86
2020-09-19 21:00:00 13.6 15 Oeste 23 Oeste 0 -- -- 80
2020-09-19 20:00:00 15.1 12 Sudoeste 25 Oeste 0 -- -- 69
2020-09-19 19:00:00 14.2 8 Oeste 31 Sudoeste 0 -- -- 67
2020-09-19 18:00:00 15.5 21 Oeste 33 Oeste 0 -- -- 60
2020-09-19 17:00:00 15.8 18 Oeste 35 Sudoeste 0 -- -- 69
2020-09-19 16:00:00 14.7 13 Oeste 31 Oeste 0.4 -- -- 81
2020-09-19 15:00:00 15.1 18 Oeste 32 Oeste 0 -- -- 78
2020-09-19 14:00:00 15.9 17 Oeste 38 Sudoeste 0 -- -- 70
2020-09-19 13:00:00 15 20 Sudoeste 43 Oeste 0 -- -- 73
2020-09-19 12:00:00 14.5 21 Sudoeste 35 Sudoeste 0 -- -- 77
2020-09-19 11:00:00 13.8 22 Sudoeste 40 Sudoeste 0 -- -- 77
2020-09-19 10:00:00 13.4 22 Sudoeste 43 Sudoeste 0 -- -- 79
2020-09-19 09:00:00 13.7 9 Sudoeste 37 Oeste 0 -- -- 75
2020-09-19 08:00:00 13.6 18 Sudoeste 39 Sur 0 -- -- 75
2020-09-19 07:00:00 11.7 4 Nordeste 11 Este 0 -- -- 91
2020-09-19 06:00:00 11.7 2 Nordeste 15 Oeste 0.2 -- -- 90
2020-09-19 05:00:00 13 12 Oeste 21 Sur 0.8 -- -- 83
2020-09-19 04:00:00 12.8 7 Nordeste 26 Sudoeste 0.2 -- -- 81
2020-09-19 03:00:00 12.6 5 Sudeste 33 Sudoeste 0.2 -- -- 81
2020-09-19 02:00:00 12.5 13 Sur 30 Sur 0 -- -- 80
2020-09-19 01:00:00 11.5 2 Nordeste 16 Oeste 0 -- -- 90
2020-09-19 00:00:00 11.3 4 Este 13 Noroeste 1 -- -- 91
2020-09-18 23:00:00 12 6 Nordeste 38 Sur 3 -- -- 84
2020-09-18 22:00:00 12.3 23 Sudeste 51 Sur 2.6 -- -- 80
2020-09-18 21:00:00 12.9 18 Sur 40 Este 0 -- -- 76
2020-09-18 20:00:00 12.9 19 Sudeste 37 Nordeste 0 -- -- 75
2020-09-18 19:00:00 12.7 9 Nordeste 36 Sur 0 -- -- 77
2020-09-18 18:00:00 11.6 19 Sudeste 40 Sudeste 7.8 -- -- 81
2020-09-18 17:00:00 13.9 13 Sur 36 Este 2.8 -- -- 79
2020-09-18 16:00:00 17.2 12 Sudeste 29 Sur 0 -- -- 58
2020-09-18 15:00:00 17.8 15 Sudeste 41 Sudeste 0 -- -- 57
2020-09-18 14:00:00 18.6 17 Sudeste 37 Sudeste 0 -- -- 50
2020-09-18 13:00:00 18 21 Sudeste 35 Sudeste 0 -- -- 51
2020-09-18 12:00:00 17.8 4 Norte 32 Sur 0 -- -- 55
2020-09-18 11:00:00 16.8 13 Nordeste 30 Este 0 -- -- 60
2020-09-18 10:00:00 14.2 6 Norte 12 Norte 0 -- -- 89
2020-09-18 09:00:00 11.9 4 Sudeste 11 Oeste 0.8 -- -- 92
2020-09-18 08:00:00 11.7 2 Norte 22 Oeste 0.6 -- -- 91
2020-09-18 07:00:00 12.4 20 Oeste 33 Oeste 0.4 -- -- 85
2020-09-18 06:00:00 12.3 5 Oeste 18 Sur 0.2 -- -- 85
2020-09-18 05:00:00 11.5 4 Sudeste 26 Sur 2.6 -- -- 91
2020-09-18 04:00:00 12.5 12 Sur 49 Sudoeste 7.8 -- -- 79
2020-09-18 03:00:00 15 3 Oeste 17 Oeste 0.6 -- -- 84
2020-09-18 02:00:00 15.2 2 Nordeste 24 Sur 0 -- -- 79
2020-09-18 01:00:00 15.4 12 Sur 26 Sudeste 0 -- -- 81
2020-09-18 00:00:00 15.1 0 Calma 24 Oeste 0.2 -- -- 78
2020-09-17 23:00:00 15 17 Sur 43 Sudeste 4.4 -- -- 78
2020-09-17 22:00:00 15.8 6 Este 32 Este 2.8 -- -- 83
2020-09-17 21:00:00 15.5 9 Sur 54 Sur 5.6 -- -- 78
2020-09-17 20:00:00 19.1 14 Sudeste 31 Sudeste 0 -- -- 65
2020-09-17 19:00:00 18.9 13 Sudeste 39 Sur 0 -- -- 71
2020-09-17 18:00:00 19.6 19 Sudeste 37 Sudeste 0 -- -- 65
2020-09-17 17:00:00 20.1 28 Sudeste 70 Sudeste 0 -- -- 63
2020-09-17 16:00:00 20.7 33 Sudeste 59 Sur 0 -- -- 60
2020-09-17 15:00:00 22.8 20 Sudeste 47 Sur 0 -- -- 51
2020-09-17 14:00:00 22.2 21 Sudeste 53 Sudeste 0 -- -- 49
2020-09-17 13:00:00 18.8 16 Este 41 Este 0 -- -- 61
2020-09-17 12:00:00 17.3 15 Este 39 Este 0 -- -- 70
2020-09-17 11:00:00 17.6 18 Nordeste 33 Este 0 -- -- 71
2020-09-17 10:00:00 15.8 13 Norte 19 Norte 0 -- -- 78
2020-09-17 09:00:00 15.5 4 Norte 19 Este 0 -- -- 77
2020-09-17 08:00:00 15.4 9 Este 23 Sudeste 0 -- -- 77
2020-09-17 07:00:00 15.7 14 Sudeste 27 Sudeste 0 -- -- 75
2020-09-17 06:00:00 15.8 13 Sudeste 23 Sudeste 0 -- -- 72
2020-09-17 05:00:00 15.2 5 Noroeste 7 Sudoeste 0 -- -- 76
2020-09-17 04:00:00 14.1 2 Sudoeste 8 Sur 0 -- -- 78
2020-09-17 03:00:00 14.8 3 Sur 8 Sudoeste 0 -- -- 74
2020-09-17 02:00:00 15.5 6 Sur 9 Sur 0 -- -- 70
2020-09-17 01:00:00 16 9 Este 33 Sudeste 0.4 -- -- 72
2020-09-17 00:00:00 17.8 13 Sur -- -- 0.2 -- -- 62
2020-09-16 23:00:00 20.7 5 Norte 27 Sudeste 0 -- -- 43
2020-09-16 22:00:00 21.5 19 Sudeste 42 Sur 0 -- -- 39
2020-09-16 21:00:00 22.1 7 Sudeste 18 Sudeste 0 -- -- 42
2020-09-16 20:00:00 23.3 7 Este 21 Sur 0 -- -- 38
2020-09-16 19:00:00 24.3 12 Sudeste 32 Sudeste 0 -- -- 35
2020-09-16 18:00:00 26 16 Sudeste 33 Sudeste 0 -- -- 31
2020-09-16 17:00:00 26.1 15 Este 33 Sudeste 0 -- -- 33
2020-09-16 16:00:00 26.2 17 Este 32 Este 0 -- -- 35
2020-09-16 15:00:00 25.5 14 Este 36 Este 0 -- -- 38
2020-09-16 14:00:00 24.5 12 Sudeste 30 Este 0 -- -- 40
2020-09-16 13:00:00 24.5 15 Este 27 Este 0 -- -- 41
2020-09-16 12:00:00 20.1 6 Este 11 Este 0 -- -- 56
2020-09-16 11:00:00 18.1 0 Calma 6 Norte 0 -- -- 61
2020-09-16 10:00:00 15.9 0 Calma 6 Oeste 0 -- -- 73
2020-09-16 09:00:00 13.1 2 Sudeste 8 Oeste 0 -- -- 80
2020-09-16 08:00:00 12.5 6 Sur 10 Oeste 0 -- -- 79
2020-09-16 07:00:00 12.7 8 Sudoeste 11 Sur 0 -- -- 76
2020-09-16 06:00:00 12.7 4 Oeste 14 Sur 0 -- -- 77
2020-09-16 05:00:00 13.1 6 Sudeste 14 Sur 0 -- -- 76
2020-09-16 04:00:00 13.9 4 Oeste 10 Sur 0 -- -- 73
2020-09-16 03:00:00 13.6 0 Calma 11 Sur 0 -- -- 73
2020-09-16 02:00:00 14.9 6 Sur 13 Sur 0 -- -- 67
2020-09-16 01:00:00 15.1 5 Sudoeste 11 Sur 0 -- -- 68
2020-09-16 00:00:00 15.6 3 Oeste 11 Sur 0 -- -- 66
2020-09-15 23:00:00 17 3 Sudoeste 19 Sudoeste 0 -- -- 60
2020-09-15 22:00:00 18.4 7 Sudoeste 22 Sudoeste 0 -- -- 55
2020-09-15 21:00:00 19.7 14 Sur 31 Sur 0 -- -- 54
2020-09-15 20:00:00 21.4 15 Sur 26 Sur 0 -- -- 45
2020-09-15 19:00:00 22.5 16 Sudeste 28 Sur 0 -- -- 43
2020-09-15 18:00:00 22.8 18 Sur 36 Sudeste 0 -- -- 42
2020-09-15 17:00:00 24.7 22 Sudeste 37 Sudeste 0 -- -- 40
2020-09-15 16:00:00 24.4 19 Sudeste 34 Sudeste 0 -- -- 42
2020-09-15 15:00:00 23.9 18 Sudeste 42 Sudeste 0 -- -- 43
2020-09-15 14:00:00 23.2 15 Sudeste 32 Sudeste 0 -- -- 48
2020-09-15 13:00:00 22.3 8 Sur 30 Sudeste 0 -- -- 51
2020-09-15 12:00:00 21 5 Oeste 13 Sudeste 0 -- -- 61
2020-09-15 11:00:00 18.3 3 Nordeste 6 Norte 0 -- -- 74
2020-09-15 10:00:00 16.4 2 Este 6 Sudeste 0 -- -- 79
2020-09-15 09:00:00 13.3 3 Norte 9 Sudoeste 0 -- -- 84
2020-09-15 08:00:00 12.8 0 Calma 6 Sur 0 -- -- 87
2020-09-15 07:00:00 13.3 3 Sudoeste 8 Sudoeste 0 -- -- 87
2020-09-15 06:00:00 12.7 2 Noroeste 6 Sur 0 -- -- 87
2020-09-15 05:00:00 13.3 4 Oeste 7 Oeste 0 -- -- 89
2020-09-15 04:00:00 13.9 0 Calma 7 Sudeste 0 -- -- 86
2020-09-15 03:00:00 14.4 2 Norte 10 Sudoeste 0 -- -- 84
2020-09-15 02:00:00 15 2 Noroeste 9 Sur 0 -- -- 83
2020-09-15 01:00:00 15.2 5 Oeste 17 Oeste 0.2 -- -- 84
2020-09-15 00:00:00 14.8 0 Calma 10 Oeste 0.2 -- -- 85
2020-09-14 23:00:00 14.8 8 Sudoeste 19 Norte 0 -- -- 82
2020-09-14 22:00:00 15.6 10 Sur 36 Sudoeste 6.4 -- -- 72
2020-09-14 21:00:00 21.6 7 Sudeste 21 Sudeste 0 -- -- 44
2020-09-14 20:00:00 23.9 15 Sudeste 30 Sudeste 0 -- -- 39
2020-09-14 19:00:00 25.1 17 Sudeste 41 Sudeste 0 -- -- 38
2020-09-14 18:00:00 25.9 18 Sudeste 40 Sur 0 -- -- 36
2020-09-14 17:00:00 25.9 29 Sudeste 51 Sudeste 0 -- -- 37
2020-09-14 16:00:00 26.1 19 Sudeste 43 Sur 0 -- -- 36
2020-09-14 15:00:00 26 25 Sur 50 Sudeste 0 -- -- 34
2020-09-14 14:00:00 25.5 31 Sudeste 48 Sudeste 0 -- -- 37
2020-09-14 13:00:00 25.4 15 Sudeste 40 Sur 0 -- -- 37
2020-09-14 12:00:00 20.2 4 Noroeste 17 Oeste 0 -- -- 51
2020-09-14 11:00:00 19.1 10 Oeste 21 Oeste 0 -- -- 54
2020-09-14 10:00:00 17.5 5 Nordeste 14 Nordeste 0 -- -- 59
2020-09-14 09:00:00 16.8 0 Calma 9 Oeste 0 -- -- 60
2020-09-14 08:00:00 16.8 9 Oeste 18 Sudeste 0 -- -- 58
2020-09-14 07:00:00 18.7 15 Sudeste 28 Este 0 -- -- 50
2020-09-14 06:00:00 18.8 20 Este 44 Sudeste 0 -- -- 50
2020-09-14 05:00:00 20.1 16 Este 33 Este 0 -- -- 45
2020-09-14 04:00:00 19.5 4 Nordeste 24 Este 0 -- -- 48
2020-09-14 03:00:00 21.1 12 Este 35 Este 0 -- -- 44
2020-09-14 02:00:00 21.6 11 Este 28 Este 0 -- -- 42
2020-09-14 01:00:00 22.5 24 Sudeste 41 Este 0 -- -- 38
2020-09-14 00:00:00 22.9 15 Sudeste 26 Sudeste 0 -- -- 37
2020-09-13 23:00:00 21.8 3 Oeste 24 Nordeste 0 -- -- 38
2020-09-13 22:00:00 22.6 10 Nordeste 32 Este 0 -- -- 38
2020-09-13 21:00:00 23.9 17 Este 34 Sudeste 0 -- -- 37
2020-09-13 20:00:00 25.1 23 Sur 42 Sur 0 -- -- 35
2020-09-13 19:00:00 26.1 26 Sur 40 Sur 0 -- -- 32
2020-09-13 18:00:00 27.6 23 Sudeste 42 Sur 0 -- -- 31
2020-09-13 17:00:00 28.4 24 Sudeste 41 Sudeste 0 -- -- 31
2020-09-13 16:00:00 28.5 22 Sur 38 Sudeste 0 -- -- 31
2020-09-13 15:00:00 28.2 24 Sudeste 42 Sudeste 0 -- -- 32
2020-09-13 14:00:00 28.8 23 Sudeste 38 Sur 0 -- -- 30
2020-09-13 13:00:00 28.5 13 Sudeste 23 Sudeste 0 -- -- 30
2020-09-13 12:00:00 25.3 5 Nordeste 11 Nordeste 0 -- -- 37
2020-09-13 11:00:00 22.3 2 Este 8 Noroeste 0 -- -- 43
2020-09-13 10:00:00 19.9 4 Oeste 9 Noroeste 0 -- -- 49
2020-09-13 09:00:00 17.9 0 Calma 15 Sur 0 -- -- 50
2020-09-13 08:00:00 16.5 5 Oeste 12 Sur 0 -- -- 52
2020-09-13 07:00:00 16.5 5 Oeste 12 Sudoeste 0 -- -- 48
2020-09-13 06:00:00 16.8 4 Oeste 11 Sur 0 -- -- 46
2020-09-13 05:00:00 16 3 Sudoeste 11 Este 0 -- -- 49
2020-09-13 04:00:00 14.9 8 Este 14 Este 0 -- -- 51
2020-09-13 03:00:00 17.1 2 Este 6 Sur 0 -- -- 45
2020-09-13 02:00:00 17.7 3 Sudoeste 9 Sur 0 -- -- 44
2020-09-13 01:00:00 19 4 Sur 8 Sur 0 -- -- 40
2020-09-13 00:00:00 19.5 3 Sur 6 Sudoeste 0 -- -- 39
2020-09-12 23:00:00 21.2 4 Noroeste 17 Sudoeste 0 -- -- 37
2020-09-12 22:00:00 23.3 7 Sudoeste 27 Sudoeste 0 -- -- 33
2020-09-12 21:00:00 24 13 Sur 27 Sudeste 0 -- -- 33
2020-09-12 20:00:00 26.4 15 Sudeste 27 Sudeste 0 -- -- 30
2020-09-12 19:00:00 27.7 11 Sudeste 22 Este 0 -- -- 28
2020-09-12 18:00:00 28.9 8 Nordeste 25 Este 0 -- -- 25
2020-09-12 17:00:00 29 10 Sudeste 27 Nordeste 0 -- -- 25
2020-09-12 16:00:00 28.8 10 Nordeste 28 Nordeste 0 -- -- 25
2020-09-12 15:00:00 28 10 Nordeste 24 Norte 0 -- -- 26
2020-09-12 14:00:00 26.9 7 Norte 21 Nordeste 0 -- -- 27
2020-09-12 13:00:00 27 11 Nordeste 19 Nordeste 0 -- -- 28
2020-09-12 12:00:00 25.5 11 Este 17 Este 0 -- -- 30
2020-09-12 11:00:00 22.8 4 Norte 7 Norte 0 -- -- 34
2020-09-12 10:00:00 19.6 2 Oeste 8 Sur 0 -- -- 41
2020-09-12 09:00:00 16.3 3 Sur 7 Oeste 0 -- -- 48
2020-09-12 08:00:00 13.7 3 Noroeste 11 Sur 0 -- -- 53
2020-09-12 07:00:00 14.1 3 Sudeste 5 Sudeste 0 -- -- 52
2020-09-12 06:00:00 16.1 2 Sur 6 Oeste 0 -- -- 46
2020-09-12 05:00:00 16.7 5 Oeste 7 Sur 0 -- -- 45
2020-09-12 04:00:00 17.2 3 Sur 6 Sur 0 -- -- 44
2020-09-12 03:00:00 17.5 0 Calma 9 Sur 0 -- -- 42
2020-09-12 02:00:00 17.9 8 Sur 10 Sur 0 -- -- 42
2020-09-12 01:00:00 18.1 8 Sur 11 Sur 0 -- -- 43
2020-09-12 00:00:00 19.2 4 Sudeste 15 Sur 0 -- -- 39
2020-09-11 23:00:00 19.7 10 Sur 15 Sur 0 -- -- 37
2020-09-11 22:00:00 20.5 12 Sur 17 Sudoeste 0 -- -- 35
2020-09-11 21:00:00 22.2 9 Sur 19 Nordeste 0 -- -- 33
2020-09-11 20:00:00 24.8 15 Norte 22 Norte 0 -- -- 29
2020-09-11 19:00:00 26 10 Noroeste 27 Norte 0 -- -- 28
2020-09-11 18:00:00 27.5 9 Norte 27 Noroeste 0 -- -- 26
2020-09-11 17:00:00 27.7 12 Noroeste 22 Noroeste 0 -- -- 25
2020-09-11 16:00:00 26.9 14 Noroeste 27 Norte 0 -- -- 26
2020-09-11 15:00:00 28 9 Noroeste 23 Sur 0 -- -- 25
2020-09-11 14:00:00 27.4 6 Noroeste 21 Oeste 0 -- -- 25
2020-09-11 13:00:00 26.6 3 Nordeste 14 Nordeste 0 -- -- 28
2020-09-11 12:00:00 24.5 5 Nordeste 12 Este 0 -- -- 32
2020-09-11 11:00:00 21.8 3 Norte 7 Noroeste 0 -- -- 36
2020-09-11 10:00:00 19.4 0 Calma 4 Norte 0 -- -- 41
2020-09-11 09:00:00 15.8 0 Calma 5 Oeste 0 -- -- 49
2020-09-11 08:00:00 12.5 4 Oeste 10 Sur 0 -- -- 56
2020-09-11 07:00:00 12.9 0 Calma 8 Sur 0 -- -- 54
2020-09-11 06:00:00 13.1 2 Sur 8 Oeste 0 -- -- 54
2020-09-11 05:00:00 13 2 Sur 7 Sur 0 -- -- 54
2020-09-11 04:00:00 14.8 3 Sudeste 5 Oeste 0 -- -- 49
2020-09-11 03:00:00 15.6 0 Calma 8 Sur 0 -- -- 47
2020-09-11 02:00:00 15.3 2 Sudeste 9 Sur 0 -- -- 47
2020-09-11 01:00:00 16.6 3 Sudeste 13 Sur 0 -- -- 44
2020-09-11 00:00:00 17.8 11 Sur 14 Sur 0 -- -- 41
2020-09-10 23:00:00 18.9 12 Sur 15 Sur 0 -- -- 38
2020-09-10 22:00:00 19.6 12 Sur 17 Sur 0 -- -- 37
2020-09-10 21:00:00 20.9 6 Sudoeste 14 Norte 0 -- -- 35
2020-09-10 20:00:00 23.5 11 Norte 21 Norte 0 -- -- 31
2020-09-10 19:00:00 24.9 11 Nordeste 20 Nordeste 0 -- -- 28
2020-09-10 18:00:00 25.8 8 Nordeste 22 Nordeste 0 -- -- 26
2020-09-10 17:00:00 26.1 10 Nordeste 21 Nordeste 0 -- -- 26
2020-09-10 16:00:00 25.9 11 Nordeste 23 Norte 0 -- -- 27
2020-09-10 15:00:00 25.8 12 Norte 22 Norte 0 -- -- 27
2020-09-10 14:00:00 25.7 7 Nordeste 29 Nordeste 0 -- -- 27
2020-09-10 13:00:00 25.2 10 Nordeste 21 Nordeste 0 -- -- 30
2020-09-10 12:00:00 23.5 5 Oeste 12 Noroeste 0 -- -- 33
2020-09-10 11:00:00 21.3 2 Nordeste 9 Nordeste 0 -- -- 37
2020-09-10 10:00:00 17.6 6 Este 14 Este 0 -- -- 45
2020-09-10 09:00:00 16.8 5 Sudoeste 13 Sur 0 -- -- 46
2020-09-10 08:00:00 15.6 10 Sudoeste 15 Sudoeste 0 -- -- 46
2020-09-10 07:00:00 13.6 4 Sur 12 Sudoeste 0 -- -- 54
2020-09-10 06:00:00 13.4 5 Sur 13 Sur 0 -- -- 52
2020-09-10 05:00:00 14.7 4 Sur 12 Sudoeste 0 -- -- 49
2020-09-10 04:00:00 16.3 8 Sur 13 Sudoeste 0 -- -- 44
2020-09-10 03:00:00 16 6 Oeste 18 Sur 0 -- -- 42
2020-09-10 02:00:00 13.8 6 Sudeste 15 Sur 0 -- -- 47
2020-09-10 01:00:00 17.4 11 Sur 15 Sur 0 -- -- 39
2020-09-10 00:00:00 18 13 Sur 18 Sur 0 -- -- 37
2020-09-09 23:00:00 18.1 12 Sur 17 Sur 0 -- -- 36
2020-09-09 22:00:00 19.3 12 Sur 14 Sudoeste 0 -- -- 33
2020-09-09 21:00:00 20.4 5 Oeste 22 Noroeste 0 -- -- 31
2020-09-09 20:00:00 23 12 Noroeste 27 Noroeste 0 -- -- 28
2020-09-09 19:00:00 24.7 17 Noroeste 26 Noroeste 0 -- -- 26
2020-09-09 18:00:00 25.6 8 Noroeste 20 Este 0 -- -- 24
2020-09-09 17:00:00 25.9 7 Norte 24 Nordeste 0 -- -- 25
2020-09-09 16:00:00 25.7 10 Este 18 Este 0 -- -- 25
2020-09-09 15:00:00 25 10 Nordeste 20 Nordeste 0 -- -- 25
2020-09-09 14:00:00 24.7 8 Este 18 Nordeste 0 -- -- 27
2020-09-09 13:00:00 23.9 5 Este 15 Nordeste 0 -- -- 29
2020-09-09 12:00:00 21.5 4 Nordeste 10 Nordeste 0 -- -- 37
2020-09-09 11:00:00 18.1 3 Noroeste 6 Oeste 0 -- -- 45
2020-09-09 10:00:00 15.4 2 Norte 7 Este 0 -- -- 50
2020-09-09 09:00:00 13.2 0 Calma 10 Sur 0 -- -- 54
2020-09-09 08:00:00 11 9 Sudoeste 12 Sudoeste 0 -- -- 59
2020-09-09 07:00:00 10.5 3 Noroeste 11 Sur 0 -- -- 59
2020-09-09 06:00:00 11.1 2 Oeste 9 Oeste 0 -- -- 57
2020-09-09 05:00:00 10.6 8 Oeste 11 Sudoeste 0 -- -- 57
2020-09-09 04:00:00 11.3 0 Calma 6 Este 0 -- -- 53
2020-09-09 03:00:00 11.8 3 Noroeste 9 Oeste 0 -- -- 51
2020-09-09 02:00:00 12.4 4 Noroeste 9 Oeste 0 -- -- 48
2020-09-09 01:00:00 13.5 2 Este 11 Oeste 0 -- -- 46
2020-09-09 00:00:00 14.6 2 Oeste 9 Norte 0 -- -- 42
2020-09-08 23:00:00 15.1 3 Noroeste 6 Noroeste 0 -- -- 40
2020-09-08 22:00:00 16.1 4 Noroeste 18 Sudeste 0 -- -- 38
2020-09-08 21:00:00 18.9 14 Sudeste 32 Sudeste 0 -- -- 34
2020-09-08 20:00:00 20.8 17 Sudeste 35 Este 0 -- -- 32
2020-09-08 19:00:00 22.7 17 Sudeste 30 Sudeste 0 -- -- 31
2020-09-08 18:00:00 24.3 12 Este 28 Este 0 -- -- 31
2020-09-08 17:00:00 23.7 17 Norte 32 Nordeste 0 -- -- 30
2020-09-08 16:00:00 23.4 13 Nordeste 24 Este 0 -- -- 27
2020-09-08 15:00:00 22.9 6 Nordeste 36 Este 0 -- -- 26
2020-09-08 14:00:00 21.7 13 Nordeste 22 Nordeste 0 -- -- 30
2020-09-08 13:00:00 20.5 9 Norte 19 Norte 0 -- -- 33
2020-09-08 12:00:00 17.5 6 Nordeste 11 Este 0 -- -- 40
2020-09-08 11:00:00 14.3 5 Nordeste 12 Nordeste 0 -- -- 48
2020-09-08 10:00:00 11.9 4 Noroeste 6 Noroeste 0 -- -- 55
2020-09-08 09:00:00 7.9 3 Noroeste 8 Oeste 0 -- -- 65
2020-09-08 08:00:00 6.3 3 Oeste 7 Sur 0 -- -- 69
2020-09-08 07:00:00 6.9 0 Calma 9 Sur 0 -- -- 69
2020-09-08 06:00:00 6.9 0 Calma 10 Sur 0 -- -- 68
2020-09-08 05:00:00 8.3 0 Calma 8 Sur 0 -- -- 64
2020-09-08 04:00:00 8.5 0 Calma 5 Sur 0 -- -- 63
2020-09-08 03:00:00 9.2 0 Calma 6 Oeste 0 -- -- 61
2020-09-08 02:00:00 10.7 2 Sur 8 Sudeste 0 -- -- 57
2020-09-08 01:00:00 11.5 0 Calma 7 Sudeste 0 -- -- 55
2020-09-08 00:00:00 13.4 5 Sur 18 Sudeste 0 -- -- 50
2020-09-07 23:00:00 15.1 12 Sudeste 18 Sudeste 0 -- -- 46
2020-09-07 22:00:00 16 10 Este 20 Este 0 -- -- 44
2020-09-07 21:00:00 17 5 Nordeste 17 Norte 0 -- -- 41
2020-09-07 20:00:00 19.6 13 Norte 19 Nordeste 0 -- -- 33
2020-09-07 19:00:00 21 8 Norte 19 Nordeste 0 -- -- 32
2020-09-07 18:00:00 21.7 12 Nordeste 20 Nordeste 0 -- -- 30
2020-09-07 17:00:00 21.8 10 Nordeste 21 Nordeste 0 -- -- 28
2020-09-07 16:00:00 21.7 11 Nordeste 27 Nordeste 0 -- -- 30
2020-09-07 15:00:00 21.6 8 Nordeste 19 Este 0 -- -- 30
2020-09-07 14:00:00 19.6 7 Norte 18 Nordeste 0 -- -- 36
2020-09-07 13:00:00 18 10 Nordeste 19 Nordeste 0 -- -- 43
2020-09-07 12:00:00 16.4 8 Nordeste 14 Nordeste 0 -- -- 49
2020-09-07 11:00:00 14.8 6 Este 14 Este 0 -- -- 55
2020-09-07 10:00:00 12.5 2 Norte 6 Nordeste 0 -- -- 66
2020-09-07 09:00:00 9.8 3 Noroeste 6 Oeste 0 -- -- 75
2020-09-07 08:00:00 7.9 3 Noroeste 9 Este 0 -- -- 79
2020-09-07 07:00:00 9.1 6 Oeste 7 Oeste 0 -- -- 77
2020-09-07 06:00:00 9.3 0 Calma 5 Oeste 0 -- -- 74
2020-09-07 05:00:00 10.6 5 Oeste 8 Oeste 0 -- -- 72
2020-09-07 04:00:00 10.8 5 Oeste 6 Oeste 0 -- -- 71
2020-09-07 03:00:00 12.1 6 Este 11 Sur 0 -- -- 67
2020-09-07 02:00:00 14.5 2 Sur 6 Sudoeste 0 -- -- 60
2020-09-07 01:00:00 15.3 4 Noroeste 9 Este 0 -- -- 58
2020-09-07 00:00:00 17.3 7 Este 17 Sudeste 0 -- -- 52
2020-09-06 23:00:00 18.8 3 Sudeste 18 Este 0 -- -- 50
2020-09-06 22:00:00 20.7 8 Este 15 Este 0 -- -- 46
2020-09-06 21:00:00 22 7 Norte 20 Noroeste 0 -- -- 43
2020-09-06 20:00:00 25 13 Noroeste 26 Norte 0 -- -- 34
2020-09-06 19:00:00 26.5 17 Norte 31 Noroeste 0 -- -- 32
2020-09-06 18:00:00 27.4 14 Noroeste 32 Noroeste 0 -- -- 30
2020-09-06 17:00:00 28 19 Norte 34 Noroeste 0 -- -- 29
2020-09-06 16:00:00 28.8 15 Noroeste 35 Noroeste 0 -- -- 28
2020-09-06 15:00:00 28.4 19 Noroeste 29 Noroeste 0 -- -- 28
2020-09-06 14:00:00 28.7 16 Noroeste 27 Noroeste 0 -- -- 28
2020-09-06 13:00:00 26.9 4 Norte 12 Nordeste 0 -- -- 33
2020-09-06 12:00:00 25 4 Norte 9 Nordeste 0 -- -- 36
2020-09-06 11:00:00 22.3 3 Norte 8 Noroeste 0 -- -- 43
2020-09-06 10:00:00 20.4 0 Calma 4 Norte 0 -- -- 48
2020-09-06 09:00:00 17.1 0 Calma 9 Sur 0 -- -- 55
2020-09-06 08:00:00 15 5 Sur 8 Sudoeste 0 -- -- 60
2020-09-06 07:00:00 14.7 0 Calma 9 Sur 0 -- -- 59
2020-09-06 06:00:00 15.4 3 Sudoeste 9 Sur 0 -- -- 55
2020-09-06 05:00:00 16 8 Sudoeste 15 Sur 0 -- -- 52
2020-09-06 04:00:00 14.8 10 Oeste 17 Sur 0 -- -- 55
2020-09-06 03:00:00 17 6 Sur 12 Sur 0 -- -- 48
2020-09-06 02:00:00 18.5 2 Este 14 Sur 0 -- -- 44
2020-09-06 01:00:00 19.9 10 Sur 13 Sur 0 -- -- 38
2020-09-06 00:00:00 20.5 5 Sur 15 Sur 0 -- -- 36
2020-09-05 23:00:00 22.1 4 Este 21 Sur 0 -- -- 36
2020-09-05 22:00:00 23.8 11 Sur 24 Sudoeste 0 -- -- 32
2020-09-05 21:00:00 24.3 9 Sur 23 Sur 0 -- -- 33
2020-09-05 20:00:00 26.8 11 Sudeste 22 Sudeste 0 -- -- 29
2020-09-05 19:00:00 28.9 8 Este 19 Norte 0 -- -- 24
2020-09-05 18:00:00 29.4 5 Norte 22 Nordeste 0 -- -- 23
2020-09-05 17:00:00 29.7 9 Este 30 Este 0 -- -- 23
2020-09-05 16:00:00 30 13 Este 30 Nordeste 0 -- -- 22
2020-09-05 15:00:00 29.8 10 Sudeste 26 Nordeste 0 -- -- 23
2020-09-05 14:00:00 29.1 12 Norte 26 Norte 0 -- -- 24
2020-09-05 13:00:00 28.5 9 Norte 21 Norte 0 -- -- 24
2020-09-05 12:00:00 27.5 5 Nordeste 11 Este 0 -- -- 25
2020-09-05 11:00:00 24.8 3 Este 8 Este 0 -- -- 32
2020-09-05 10:00:00 20.6 2 Nordeste 5 Este 0 -- -- 42
2020-09-05 09:00:00 17.6 2 Nordeste 7 Sur 0 -- -- 48
2020-09-05 08:00:00 14.7 3 Sur 6 Oeste 0 -- -- 52
2020-09-05 07:00:00 13.8 5 Oeste 7 Oeste 0 -- -- 56
2020-09-05 06:00:00 15.7 3 Sudoeste 10 Sur 0 -- -- 50
2020-09-05 05:00:00 16.8 8 Sur 10 Sur 0 -- -- 48
2020-09-05 04:00:00 17.4 4 Este 10 Este 0 -- -- 47
2020-09-05 03:00:00 18.9 6 Sudoeste 12 Sur 0 -- -- 44
2020-09-05 02:00:00 17.7 5 Sur 18 Oeste 0 -- -- 46
2020-09-05 01:00:00 18.8 5 Sur 12 Sur 0 -- -- 43
2020-09-05 00:00:00 19.5 5 Sur 8 Sur 0 -- -- 42
2020-09-04 23:00:00 21.4 3 Noroeste 11 Sudoeste 0 -- -- 37
2020-09-04 22:00:00 22.4 9 Sudoeste 17 Sudoeste 0 -- -- 35
2020-09-04 21:00:00 24.8 12 Sudoeste 35 Sur 0 -- -- 31
2020-09-04 20:00:00 26.9 18 Sur 33 Sudoeste 0 -- -- 30
2020-09-04 19:00:00 28.6 17 Sur 31 Sudeste 0 -- -- 28
2020-09-04 18:00:00 29.4 22 Sudeste 36 Sudeste 0 -- -- 27
2020-09-04 17:00:00 29.7 16 Sudeste 32 Sur 0 -- -- 27
2020-09-04 16:00:00 30.1 18 Sudeste 32 Sudeste 0 -- -- 26
2020-09-04 15:00:00 29.8 14 Sudeste 33 Este 0 -- -- 26
2020-09-04 14:00:00 28.9 17 Este 30 Este 0 -- -- 25
2020-09-04 13:00:00 28.7 7 Este 23 Sudeste 0 -- -- 25
2020-09-04 12:00:00 26.7 8 Norte 15 Norte 0 -- -- 28
2020-09-04 11:00:00 22.8 4 Nordeste 8 Norte 0 -- -- 34
2020-09-04 10:00:00 19.9 2 Nordeste 5 Sudeste 0 -- -- 39
2020-09-04 09:00:00 17 2 Sudeste 11 Sur 0 -- -- 44
2020-09-04 08:00:00 13.9 3 Sur 9 Sudoeste 0 -- -- 48
2020-09-04 07:00:00 13.8 0 Calma 5 Sur 0 -- -- 48
2020-09-04 06:00:00 13.3 2 Noroeste 9 Este 0 -- -- 48
2020-09-04 05:00:00 15.1 2 Sur 10 Sur 0 -- -- 44
2020-09-04 04:00:00 15.5 2 Este 9 Sur 0 -- -- 43
2020-09-04 03:00:00 16.6 3 Sudoeste 10 Sur 0 -- -- 41
2020-09-04 02:00:00 17.3 4 Sudoeste 8 Sudoeste 0 -- -- 38
2020-09-04 01:00:00 17.9 3 Sudoeste 8 Sur 0 -- -- 37
2020-09-04 00:00:00 18.3 0 Calma 19 Sur 0 -- -- 35
2020-09-03 23:00:00 20.6 13 Sur 18 Sur 0 -- -- 31
2020-09-03 22:00:00 21.2 14 Sur 18 Sur 0 -- -- 31
2020-09-03 21:00:00 23.3 12 Sur 18 Noroeste 0 -- -- 29
2020-09-03 20:00:00 26.1 16 Noroeste 21 Noroeste 0 -- -- 25
2020-09-03 19:00:00 27.9 7 Nordeste 23 Noroeste 0 -- -- 23
2020-09-03 18:00:00 28.9 12 Noroeste 26 Norte 0 -- -- 22
2020-09-03 17:00:00 29.7 6 Sur 24 Norte 0 -- -- 21
2020-09-03 16:00:00 29.3 6 Noroeste 24 Oeste 0 -- -- 22
2020-09-03 15:00:00 29.1 10 Sudoeste 29 Oeste 0 -- -- 21
2020-09-03 14:00:00 27.9 13 Noroeste 26 Noroeste 0 -- -- 23
2020-09-03 13:00:00 26.9 7 Oeste 16 Oeste 0 -- -- 24
2020-09-03 12:00:00 24.3 5 Nordeste 12 Norte 0 -- -- 30
2020-09-03 11:00:00 22.5 3 Este 8 Norte 0 -- -- 32
2020-09-03 10:00:00 19.4 2 Nordeste 4 Nordeste 0 -- -- 38
2020-09-03 09:00:00 15.8 0 Calma 4 Sur 0 -- -- 45
2020-09-03 08:00:00 12.4 0 Calma 3 Sudoeste 0 -- -- 49
2020-09-03 07:00:00 12.2 0 Calma 6 Sur 0 -- -- 49
2020-09-03 06:00:00 11.8 6 Oeste 10 Oeste 0 -- -- 52
2020-09-03 05:00:00 12.4 5 Sur 8 Sur 0 -- -- 50
2020-09-03 04:00:00 13.4 3 Sur 6 Sur 0 -- -- 47
2020-09-03 03:00:00 14.3 3 Sudoeste 8 Sudoeste 0 -- -- 46
2020-09-03 02:00:00 13.9 0 Calma 3 Sudeste 0 -- -- 47
2020-09-03 01:00:00 15.1 0 Calma 13 Sur 0 -- -- 43
2020-09-03 00:00:00 17.2 10 Sur 14 Sur 0 -- -- 39
2020-09-02 23:00:00 17.9 13 Sur 16 Sur 0 -- -- 36
2020-09-02 22:00:00 18.5 13 Sur 18 Sudoeste 0 -- -- 33
2020-09-02 21:00:00 20.6 3 Sur 14 Norte 0 -- -- 30
2020-09-02 20:00:00 23.1 10 Norte 20 Norte 0 -- -- 25
2020-09-02 19:00:00 24.5 13 Nordeste 23 Nordeste 0 -- -- 24
2020-09-02 18:00:00 25.2 14 Nordeste 23 Nordeste 0 -- -- 22
2020-09-02 17:00:00 25.5 10 Norte 24 Nordeste 0 -- -- 22
2020-09-02 16:00:00 25.3 15 Nordeste 23 Nordeste 0 -- -- 23
2020-09-02 15:00:00 24.9 11 Este 39 Este 0 -- -- 24
2020-09-02 14:00:00 24.3 4 Nordeste 20 Este 0 -- -- 25
2020-09-02 13:00:00 24.2 9 Este 21 Este 0 -- -- 26
2020-09-02 12:00:00 23 8 Este 17 Este 0 -- -- 27
2020-09-02 11:00:00 20 3 Este 8 Nordeste 0 -- -- 31
2020-09-02 10:00:00 16.9 2 Este 6 Este 0 -- -- 37
2020-09-02 09:00:00 13.1 3 Sudeste 4 Sudeste 0 -- -- 45
2020-09-02 08:00:00 10.5 3 Sudoeste 8 Sudoeste 0 -- -- 49
2020-09-02 07:00:00 11 5 Sur 9 Sur 0 -- -- 47
2020-09-02 06:00:00 11.3 2 Sudeste 6 Sur 0 -- -- 46
2020-09-02 05:00:00 12.9 5 Sur 8 Sur 0 -- -- 42
2020-09-02 04:00:00 13.3 5 Sur 10 Sur 0 -- -- 40
2020-09-02 03:00:00 13.8 0 Calma 9 Sudoeste 0 -- -- 37
2020-09-02 02:00:00 13.9 9 Oeste 21 Sur 0 -- -- 36
2020-09-02 01:00:00 11.9 6 Sur 24 Nordeste 0 -- -- 41
2020-09-02 00:00:00 16.1 12 Sur 14 Sur 0 -- -- 31
2020-09-01 23:00:00 16.6 11 Sur 15 Sur 0 -- -- 30
2020-09-01 22:00:00 17.4 12 Sur 15 Sudoeste 0 -- -- 30
2020-09-01 21:00:00 19.5 0 Calma 13 Noroeste 0 -- -- 27
2020-09-01 20:00:00 21.8 10 Noroeste 17 Noroeste 0 -- -- 23
2020-09-01 19:00:00 22.4 13 Noroeste 25 Noroeste 0 -- -- 24
2020-09-01 18:00:00 23.9 14 Norte 25 Noroeste 0 -- -- 19
2020-09-01 17:00:00 23.7 14 Noroeste 27 Noroeste 0 -- -- 21
2020-09-01 16:00:00 24.1 19 Noroeste 30 Noroeste 0 -- -- 22
2020-09-01 15:00:00 24.2 10 Norte 24 Noroeste 0 -- -- 21
2020-09-01 14:00:00 23.6 10 Oeste 26 Norte 0 -- -- 19
2020-09-01 13:00:00 22.3 7 Noroeste 15 Noroeste 0 -- -- 25
2020-09-01 12:00:00 21.2 5 Noroeste 11 Noroeste 0 -- -- 27
2020-09-01 11:00:00 19 3 Nordeste 6 Este 0 -- -- 29
2020-09-01 10:00:00 15.2 3 Sur 11 Oeste 0 -- -- 39
2020-09-01 09:00:00 14.4 8 Sur 10 Sur 0 -- -- 39
2020-09-01 08:00:00 13.2 8 Oeste 11 Oeste 0 -- -- 40
2020-09-01 07:00:00 15.1 8 Sur 12 Sur 0 -- -- 36
2020-09-01 06:00:00 13.3 0 Calma 7 Oeste 0 -- -- 39
2020-09-01 05:00:00 13.4 7 Sur 12 Oeste 0 -- -- 38
2020-09-01 04:00:00 12.7 5 Sur 9 Sudoeste 0 -- -- 40
2020-09-01 03:00:00 12.2 4 Sudoeste 10 Oeste 0 -- -- 41
2020-09-01 02:00:00 12.1 0 Calma 8 Sur 0 -- -- 41
2020-09-01 01:00:00 12.7 3 Sur 10 Sur 0 -- -- 38
2020-09-01 00:00:00 13.8 0 Calma 16 Sur 0 -- -- 38
2020-08-31 23:00:00 15.3 10 Sur 14 Oeste 0 -- -- 34
2020-08-31 22:00:00 15.5 8 Sudoeste 12 Sudoeste 0 -- -- 35
2020-08-31 21:00:00 17.9 9 Sudoeste 15 Sudoeste 0 -- -- 30
2020-08-31 20:00:00 21.3 11 Oeste 23 Oeste 0 -- -- 26
2020-08-31 19:00:00 22.5 15 Oeste 27 Oeste 0 -- -- 25
2020-08-31 18:00:00 22.3 14 Oeste 27 Oeste 0 -- -- 24
2020-08-31 17:00:00 21.7 15 Oeste 29 Oeste 0 -- -- 25
2020-08-31 16:00:00 22.2 11 Oeste 23 Oeste 0 -- -- 24
2020-08-31 15:00:00 21.8 14 Oeste 23 Oeste 0 -- -- 24
2020-08-31 14:00:00 21.9 4 Oeste 21 Oeste 0 -- -- 24
2020-08-31 13:00:00 20.5 8 Noroeste 16 Noroeste 0 -- -- 26
2020-08-31 12:00:00 19.5 6 Sudeste 12 Sudeste 0 -- -- 30
2020-08-31 11:00:00 16 3 Nordeste 7 Nordeste 0 -- -- 37
2020-08-31 10:00:00 13.8 2 Este 4 Este 0 -- -- 44
2020-08-31 09:00:00 9.1 0 Calma 7 Sur 0 -- -- 58
2020-08-31 08:00:00 6 0 Calma 5 Sudoeste 0 -- -- 64
2020-08-31 07:00:00 5.7 4 Sudeste 6 Sur 0 -- -- 65
2020-08-31 06:00:00 6.1 0 Calma 6 Sur 0 -- -- 64
2020-08-31 05:00:00 6.9 3 Sur 5 Sur 0 -- -- 61
2020-08-31 04:00:00 7.9 2 Sudoeste 6 Oeste 0 -- -- 57
2020-08-31 03:00:00 7.8 0 Calma 4 Sur 0 -- -- 57
2020-08-31 02:00:00 8.8 0 Calma 4 Sur 0 -- -- 54
2020-08-31 01:00:00 9.2 3 Sur 12 Sur 0 -- -- 53
2020-08-31 00:00:00 10 0 Calma 12 Sur 0 -- -- 51
2020-08-30 23:00:00 11.3 8 Sur 12 Sur 0 -- -- 47
2020-08-30 22:00:00 12.4 7 Sur 11 Sur 0 -- -- 44
2020-08-30 21:00:00 13.6 3 Este 21 Nordeste 0 -- -- 42
2020-08-30 20:00:00 15.8 9 Norte 22 Norte 0 -- -- 37
2020-08-30 19:00:00 16.2 10 Nordeste 26 Nordeste 0 -- -- 38
2020-08-30 18:00:00 17.3 10 Norte 23 Norte 0 -- -- 36
2020-08-30 17:00:00 17.2 9 Norte 22 Nordeste 0 -- -- 37
2020-08-30 16:00:00 17.6 12 Nordeste 31 Este 0 -- -- 36
2020-08-30 15:00:00 17.1 10 Nordeste 21 Este 0 -- -- 37
2020-08-30 14:00:00 16.1 9 Norte 24 Nordeste 0 -- -- 41
2020-08-30 13:00:00 15.1 7 Nordeste 21 Este 0 -- -- 45
2020-08-30 12:00:00 13.8 10 Nordeste 19 Este 0 -- -- 51
2020-08-30 11:00:00 12.1 12 Nordeste 22 Nordeste 0 -- -- 56
2020-08-30 10:00:00 10.7 6 Este 11 Este 0 -- -- 63
2020-08-30 09:00:00 8.1 0 Calma 4 Noroeste 0 -- -- 73
2020-08-30 08:00:00 5 3 Sur 4 Sur 0 -- -- 84
2020-08-30 07:00:00 5.2 0 Calma 8 Sur 0 -- -- 82
2020-08-30 06:00:00 5.6 0 Calma 6 Sudeste 0 -- -- 79
2020-08-30 05:00:00 6.9 5 Sur 12 Sudeste 0 -- -- 75
2020-08-30 04:00:00 7.8 8 Sudeste 17 Este 0 -- -- 75
2020-08-30 03:00:00 9 4 Nordeste 18 Nordeste 0 -- -- 71
2020-08-30 02:00:00 10.1 9 Nordeste 23 Nordeste 0 -- -- 71
2020-08-30 01:00:00 11.3 15 Nordeste 25 Nordeste 0 -- -- 67
2020-08-30 00:00:00 12.4 6 Nordeste 24 Norte 0 -- -- 57
2020-08-29 23:00:00 13.3 10 Norte 26 Nordeste 0 -- -- 54
2020-08-29 22:00:00 13.1 14 Noroeste 26 Noroeste 0 -- -- 54
2020-08-29 21:00:00 14 13 Noroeste 32 Noroeste 0 -- -- 47
2020-08-29 20:00:00 15.2 22 Noroeste 39 Norte 0 -- -- 45
2020-08-29 19:00:00 16.8 24 Noroeste 36 Noroeste 0 -- -- 41
2020-08-29 18:00:00 17 20 Noroeste 33 Noroeste 0 -- -- 40
2020-08-29 17:00:00 16.9 19 Noroeste 39 Noroeste 0 -- -- 39
2020-08-29 16:00:00 17 18 Noroeste 33 Noroeste 0 -- -- 40
2020-08-29 15:00:00 15.7 17 Noroeste 31 Noroeste 0 -- -- 44
2020-08-29 14:00:00 15.5 18 Noroeste 30 Noroeste 0 -- -- 45
2020-08-29 13:00:00 13.9 13 Noroeste 24 Noroeste 0 -- -- 52
2020-08-29 12:00:00 12.7 15 Noroeste 28 Noroeste 0 -- -- 56
2020-08-29 11:00:00 11.5 15 Norte 24 Noroeste 0 -- -- 60
2020-08-29 10:00:00 10.3 4 Norte 17 Noroeste 0 -- -- 65
2020-08-29 09:00:00 10 8 Noroeste 13 Noroeste 0 -- -- 70
2020-08-29 08:00:00 9 8 Oeste 12 Noroeste 0 -- -- 76
2020-08-29 07:00:00 9.6 6 Noroeste 13 Noroeste 0 -- -- 75
2020-08-29 06:00:00 9.5 3 Noroeste 18 Oeste 0 -- -- 73
2020-08-29 05:00:00 9.6 3 Oeste 24 Oeste 0 -- -- 68
2020-08-29 04:00:00 10.6 9 Oeste 32 Oeste 0 -- -- 66
2020-08-29 03:00:00 10.7 15 Sudoeste 32 Oeste 0 -- -- 62
2020-08-29 02:00:00 12.1 14 Sudoeste 28 Oeste 0 -- -- 55
2020-08-29 01:00:00 12.9 13 Sudoeste 28 Oeste 0 -- -- 53
2020-08-29 00:00:00 14.2 18 Oeste 32 Oeste 0 -- -- 51
2020-08-28 23:00:00 15.7 10 Sudoeste 20 Sudoeste 0 -- -- 41
2020-08-28 22:00:00 16.8 11 Sudoeste 26 Sudoeste 0 -- -- 35
2020-08-28 21:00:00 18.3 12 Sudoeste 31 Noroeste 0 -- -- 26
2020-08-28 20:00:00 21.4 24 Oeste 41 Oeste 0 -- -- 20
2020-08-28 19:00:00 23.6 24 Oeste 43 Oeste 0 -- -- 21
2020-08-28 18:00:00 25.2 20 Oeste 42 Oeste 0 -- -- 22
2020-08-28 17:00:00 25.4 23 Oeste 42 Oeste 0 -- -- 25
2020-08-28 16:00:00 25.7 25 Oeste 52 Oeste 0 -- -- 25
2020-08-28 15:00:00 25.1 24 Oeste 37 Oeste 0 -- -- 31
2020-08-28 14:00:00 23.9 25 Oeste 43 Oeste 0 -- -- 43
2020-08-28 13:00:00 22.2 31 Oeste 45 Oeste 0 -- -- 47
2020-08-28 12:00:00 20.1 30 Oeste 46 Oeste 0 -- -- 58
2020-08-28 11:00:00 18.8 32 Oeste 46 Oeste 0 -- -- 66
2020-08-28 10:00:00 17.5 24 Oeste 35 Oeste 0 -- -- 72
2020-08-28 09:00:00 16.9 15 Oeste 23 Noroeste 0 -- -- 76
2020-08-28 08:00:00 14.5 4 Noroeste 14 Oeste 0 -- -- 81
2020-08-28 07:00:00 14.8 4 Sudoeste 13 Noroeste 0 -- -- 77
2020-08-28 06:00:00 16 10 Oeste 29 Noroeste 0 -- -- 76
2020-08-28 05:00:00 17.5 17 Oeste 32 Oeste 0 -- -- 61
2020-08-28 04:00:00 18.3 10 Oeste 16 Oeste 0 -- -- 60
2020-08-28 03:00:00 18.7 7 Oeste 14 Sudoeste 0 -- -- 60
2020-08-28 02:00:00 20.5 9 Oeste 26 Oeste 0 -- -- 54
2020-08-28 01:00:00 22.1 16 Oeste 35 Sudoeste 0 -- -- 47
2020-08-28 00:00:00 23.2 19 Sudoeste 35 Oeste 0 -- -- 38
2020-08-27 23:00:00 23.9 18 Oeste 32 Oeste 0 -- -- 38
2020-08-27 22:00:00 24.7 15 Sudoeste 26 Sudoeste 0 -- -- 35
2020-08-27 21:00:00 26.7 7 Oeste 21 Norte 0 -- -- 37
2020-08-27 20:00:00 29 15 Noroeste 26 Noroeste 0 -- -- 31
2020-08-27 19:00:00 30.6 10 Noroeste 26 Noroeste 0 -- -- 27
2020-08-27 18:00:00 31 10 Norte 25 Noroeste 0 -- -- 24
2020-08-27 17:00:00 31.6 17 Oeste 38 Oeste 0 -- -- 24
2020-08-27 16:00:00 32.5 10 Oeste 26 Nordeste 0 -- -- 21
2020-08-27 15:00:00 31.1 9 Este 18 Noroeste 0 -- -- 31
2020-08-27 14:00:00 29.9 13 Norte 37 Nordeste 0 -- -- 34
2020-08-27 13:00:00 29.3 6 Norte 15 Nordeste 0 -- -- 32
2020-08-27 12:00:00 28.2 7 Nordeste 13 Norte 0 -- -- 36
2020-08-27 11:00:00 27.2 4 Este 12 Este 0 -- -- 40
2020-08-27 10:00:00 23.8 2 Norte 5 Oeste 0 -- -- 46
2020-08-27 09:00:00 19.6 6 Oeste 7 Oeste 0 -- -- 55
2020-08-27 08:00:00 16.8 2 Noroeste 5 Oeste 0 -- -- 59
2020-08-27 07:00:00 17.2 3 Sudoeste 10 Sur 0 -- -- 57
2020-08-27 06:00:00 18.7 0 Calma 12 Sur 0 -- -- 50
2020-08-27 05:00:00 19.3 0 Calma 14 Sur 0 -- -- 48
2020-08-27 04:00:00 20.4 7 Sudoeste 15 Sur 0 -- -- 40
2020-08-27 03:00:00 20.8 9 Sur 14 Sur 0 -- -- 37
2020-08-27 02:00:00 20.9 11 Sur 13 Sur 0 -- -- 38
2020-08-27 01:00:00 21.6 7 Sudoeste 14 Sur 0 -- -- 40
2020-08-27 00:00:00 23 10 Sur 13 Sur 0 -- -- 37
2020-08-26 23:00:00 23.6 12 Oeste 16 Oeste 0 -- -- 36
2020-08-26 22:00:00 25 7 Sudoeste 13 Oeste 0 -- -- 34
2020-08-26 21:00:00 26.9 9 Sudoeste 14 Oeste 0 -- -- 31
2020-08-26 20:00:00 29.7 11 Noroeste 31 Oeste 0 -- -- 27
2020-08-26 19:00:00 31.1 16 Noroeste 31 Oeste 0 -- -- 26
2020-08-26 18:00:00 31.9 8 Noroeste 25 Oeste 0 -- -- 23
2020-08-26 17:00:00 32.9 7 Oeste 26 Oeste 0 -- -- 24
2020-08-26 16:00:00 32.2 12 Noroeste 28 Oeste 0 -- -- 24
2020-08-26 15:00:00 31.9 18 Oeste 30 Noroeste 0 -- -- 25
2020-08-26 14:00:00 31.7 13 Noroeste 28 Oeste 0 -- -- 24
2020-08-26 13:00:00 30.8 18 Oeste 29 Oeste 0 -- -- 25
2020-08-26 12:00:00 29.7 19 Oeste 28 Oeste 0 -- -- 27
2020-08-26 11:00:00 27.4 4 Norte 9 Norte 0 -- -- 28
2020-08-26 10:00:00 23.2 3 Norte 7 Oeste 0 -- -- 36
2020-08-26 09:00:00 20.5 2 Este 7 Oeste 0 -- -- 41
2020-08-26 08:00:00 17.4 6 Sudoeste 9 Sur 0 -- -- 43
2020-08-26 07:00:00 16.4 2 Oeste 8 Sur 0 -- -- 46
2020-08-26 06:00:00 16 2 Sudeste 9 Sur 0 -- -- 41
2020-08-26 05:00:00 17.3 0 Calma 10 Sur 0 -- -- 37
2020-08-26 04:00:00 19 9 Sur 13 Sur 0 -- -- 33
2020-08-26 03:00:00 18.4 0 Calma 13 Sur 0 -- -- 36
2020-08-26 02:00:00 20.5 11 Sur 16 Sur 0 -- -- 32
2020-08-26 01:00:00 20 4 Sudeste 15 Sur 0 -- -- 34
2020-08-26 00:00:00 22.4 6 Sudoeste 17 Sur 0 -- -- 30
2020-08-25 23:00:00 23.5 10 Sudoeste 21 Sudoeste 0 -- -- 28
2020-08-25 22:00:00 26.4 18 Sudoeste 30 Sudoeste 0 -- -- 23
2020-08-25 21:00:00 26.7 13 Sudoeste 24 Oeste 0 -- -- 24
2020-08-25 20:00:00 30 15 Oeste 29 Oeste 0 -- -- 23
2020-08-25 19:00:00 31.5 17 Oeste 29 Sudoeste 0 -- -- 22
2020-08-25 18:00:00 32.7 13 Oeste 27 Noroeste 0 -- -- 21
2020-08-25 17:00:00 32.6 13 Noroeste 32 Oeste 0 -- -- 20
2020-08-25 16:00:00 32.2 16 Oeste 33 Oeste 0 -- -- 21
2020-08-25 15:00:00 31.7 12 Noroeste 34 Oeste 0 -- -- 21
2020-08-25 14:00:00 31.4 22 Oeste 39 Oeste 0 -- -- 20
2020-08-25 13:00:00 30.4 24 Oeste 35 Oeste 0 -- -- 21
2020-08-25 12:00:00 29.5 19 Oeste 29 Oeste 0 -- -- 22
2020-08-25 11:00:00 27.8 4 Nordeste 8 Nordeste 0 -- -- 27
2020-08-25 10:00:00 24.2 2 Este 5 Sudeste 0 -- -- 34
2020-08-25 09:00:00 20.3 0 Calma 5 Sudeste 0 -- -- 41
2020-08-25 08:00:00 16.8 0 Calma 6 Sur 0 -- -- 47
2020-08-25 07:00:00 16.1 0 Calma 10 Sur 0 -- -- 48
2020-08-25 06:00:00 16.2 3 Sur 8 Sur 0 -- -- 48
2020-08-25 05:00:00 16.7 3 Oeste 8 Sudoeste 0 -- -- 47
2020-08-25 04:00:00 17.1 2 Sur 7 Sur 0 -- -- 47
2020-08-25 03:00:00 17.6 3 Sur 9 Sur 0 -- -- 46
2020-08-25 02:00:00 18.3 4 Sudoeste 8 Sudoeste 0 -- -- 45
2020-08-25 01:00:00 19.1 6 Sur 9 Sudoeste 0 -- -- 42
2020-08-25 00:00:00 19.3 3 Sur 12 Sur 0 -- -- 42
2020-08-24 23:00:00 21.4 6 Sur 14 Sur 0 -- -- 37
2020-08-24 22:00:00 22.6 12 Sur 15 Sur 0 -- -- 36
2020-08-24 21:00:00 25.3 3 Sur 15 Noroeste 0 -- -- 32
2020-08-24 20:00:00 27.4 9 Noroeste 18 Noroeste 0 -- -- 29
2020-08-24 19:00:00 28.9 8 Norte 24 Norte 0 -- -- 27
2020-08-24 18:00:00 29.6 7 Noroeste 17 Norte 0 -- -- 27
2020-08-24 17:00:00 29.8 12 Noroeste 34 Noroeste 0 -- -- 26
2020-08-24 16:00:00 30.1 19 Noroeste 31 Nordeste 0 -- -- 25
2020-08-24 15:00:00 30 10 Este 19 Este 0 -- -- 24
2020-08-24 14:00:00 29 5 Nordeste 17 Noroeste 0 -- -- 26
2020-08-24 13:00:00 26.8 9 Nordeste 19 Este 0 -- -- 29
2020-08-24 12:00:00 25.4 6 Este 19 Este 0 -- -- 32
2020-08-24 11:00:00 24.2 9 Nordeste 16 Nordeste 0 -- -- 33
2020-08-24 10:00:00 21.6 3 Nordeste 6 Este 0 -- -- 36
2020-08-24 09:00:00 18.2 0 Calma 4 Oeste 0 -- -- 42
2020-08-24 08:00:00 13.9 0 Calma 6 Noroeste 0 -- -- 49
2020-08-24 07:00:00 14 4 Sur 5 Sur 0 -- -- 48
2020-08-24 06:00:00 14.2 0 Calma 10 Sur 0 -- -- 47
2020-08-24 05:00:00 15.9 9 Sudoeste 13 Sudoeste 0 -- -- 42
2020-08-24 04:00:00 14.3 3 Noroeste 12 Sur 0 -- -- 47
2020-08-24 03:00:00 16.1 0 Calma 9 Sur 0 -- -- 42
2020-08-24 02:00:00 17 4 Sudoeste 13 Sur 0 -- -- 40
2020-08-24 01:00:00 17.8 6 Sur 14 Sudoeste 0 -- -- 39
2020-08-24 00:00:00 19.2 10 Sur 17 Sur 0 -- -- 37